Time;durP1;ratioP1;P1;durP2;ratioP2;P2;SDS_P1;SDS_P2;PMS_P1;PMS_P2;Temp;Humidity;BMP_temperature;BMP_pressure;BME280_temperature;BME280_humidity;BME280_pressure;Samples;Min_cycle;Max_cycle;Signal;HPM_P1;HPM_P2
2021/12/22 00:00:30;;;;;;;61.03;31.92;;;-3.60;99.90;;;;;;4983604;28;20132;-86
2021/12/22 00:02:55;;;;;;;63.30;31.30;;;-3.70;99.90;;;;;;4982209;28;20132;-85
2021/12/22 00:05:25;;;;;;;64.97;32.10;;;-3.80;99.90;;;;;;4983027;28;20131;-85
2021/12/22 00:07:51;;;;;;;63.03;30.55;;;-3.70;99.90;;;;;;4995932;28;20041;-85
2021/12/22 00:10:18;;;;;;;57.75;29.20;;;-3.90;99.90;;;;;;4981846;28;20049;-85
2021/12/22 00:12:44;;;;;;;52.15;27.67;;;-3.90;99.90;;;;;;4983467;28;20419;-85
2021/12/22 00:15:10;;;;;;;57.33;26.55;;;-4.00;99.90;;;;;;4980170;28;20037;-86
2021/12/22 00:17:36;;;;;;;53.53;28.73;;;-4.00;99.90;;;;;;4982788;28;20047;-86
2021/12/22 00:20:04;;;;;;;50.22;27.48;;;-4.10;99.90;;;;;;4982408;28;20038;-85
2021/12/22 00:22:29;;;;;;;48.92;27.60;;;-4.10;99.90;;;;;;4998279;28;20805;-85
2021/12/22 00:24:55;;;;;;;57.10;28.10;;;-4.20;99.90;;;;;;4980587;28;20081;-84
2021/12/22 00:27:21;;;;;;;57.60;29.95;;;-4.20;99.90;;;;;;4996791;28;20037;-86
2021/12/22 00:29:49;;;;;;;54.65;28.50;;;-4.20;99.90;;;;;;4996606;28;20482;-85
2021/12/22 00:32:17;;;;;;;53.28;28.05;;;-4.20;99.90;;;;;;4998191;28;20653;-85
2021/12/22 00:34:51;;;;;;;60.63;29.75;;;-4.20;99.90;;;;;;4998918;28;20055;-85
2021/12/22 00:37:18;;;;;;;;;;;-4.30;99.90;;;;;;4982042;28;20100;-85
2021/12/22 00:39:44;;;;;;;55.38;26.70;;;-4.30;99.90;;;;;;4993594;28;20011;-85
2021/12/22 00:42:11;;;;;;;55.13;27.92;;;-4.40;99.90;;;;;;4994637;28;20037;-85
2021/12/22 00:44:38;;;;;;;65.18;29.88;;;-4.40;99.90;;;;;;4995892;28;20055;-85
2021/12/22 00:47:03;;;;;;;67.90;30.50;;;-4.40;99.90;;;;;;4996855;28;20080;-86
2021/12/22 00:49:30;;;;;;;55.65;28.23;;;-4.30;99.90;;;;;;4983521;28;20069;-84
2021/12/22 00:51:56;;;;;;;56.85;28.35;;;-4.30;99.90;;;;;;4981903;28;20057;-86
2021/12/22 00:54:21;;;;;;;54.17;28.52;;;-4.30;99.90;;;;;;4995363;28;20042;-85
2021/12/22 00:56:47;;;;;;;56.33;28.08;;;-4.40;99.90;;;;;;4996014;28;20569;-85
2021/12/22 00:59:12;;;;;;;50.13;25.67;;;-4.40;99.90;;;;;;4980868;28;20182;-86
2021/12/22 01:01:38;;;;;;;49.65;26.50;;;-4.40;99.90;;;;;;4997400;28;20053;-85
2021/12/22 01:04:04;;;;;;;54.58;27.48;;;-4.40;99.90;;;;;;4997837;28;20038;-86
2021/12/22 01:06:30;;;;;;;51.75;26.88;;;-4.50;99.90;;;;;;4979647;28;20053;-85
2021/12/22 01:08:55;;;;;;;57.88;28.65;;;-4.50;99.90;;;;;;4980865;28;20047;-85
2021/12/22 01:11:21;;;;;;;48.35;26.75;;;-4.50;99.90;;;;;;4978413;28;20065;-85
2021/12/22 01:13:47;;;;;;;52.30;26.85;;;-4.50;99.90;;;;;;4979999;28;20488;-85
2021/12/22 01:16:12;;;;;;;51.47;24.95;;;-4.50;99.90;;;;;;4982845;28;20124;-85
2021/12/22 01:18:38;;;;;;;51.22;26.02;;;-4.60;99.90;;;;;;4978766;28;20042;-85
2021/12/22 01:21:20;;;;;;;53.72;26.15;;;-4.60;99.90;;;;;;4994630;28;20120;-85
2021/12/22 01:24:00;;;;;;;51.78;25.73;;;-4.60;99.90;;;;;;4994213;28;20503;-84
2021/12/22 01:26:28;;;;;;;51.92;26.25;;;-4.60;99.90;;;;;;4979245;28;20050;-84
2021/12/22 01:28:54;;;;;;;63.58;27.23;;;-4.70;99.90;;;;;;4981424;28;20045;-85
2021/12/22 01:31:20;;;;;;;57.05;28.25;;;-4.70;99.90;;;;;;4999991;28;20526;-85
2021/12/22 01:33:46;;;;;;;64.35;30.70;;;-4.60;99.90;;;;;;4982444;28;20080;-86
2021/12/22 01:36:11;;;;;;;64.75;30.50;;;-4.50;99.90;;;;;;4982827;28;20060;-85
2021/12/22 01:38:37;;;;;;;64.55;29.05;;;-4.40;99.90;;;;;;5017093;28;20114;-85
2021/12/22 01:41:03;;;;;;;65.50;30.15;;;-4.40;99.90;;;;;;4984212;28;20434;-86
2021/12/22 01:43:29;;;;;;;66.32;30.73;;;-4.30;99.90;;;;;;4981258;28;20095;-85
2021/12/22 01:51:56;;;;;;;66.13;29.37;;;-4.20;99.90;;;;;;5002285;28;20127;-86
2021/12/22 01:54:45;;;;;;;62.13;29.73;;;-4.10;99.90;;;;;;4996467;28;20310;-85
2021/12/22 01:57:12;;;;;;;63.83;28.95;;;-4.20;99.90;;;;;;4998738;28;20550;-85
2021/12/22 01:59:40;;;;;;;61.40;29.25;;;-4.20;99.90;;;;;;4981108;28;20046;-86
2021/12/22 02:02:08;;;;;;;65.43;28.15;;;-4.30;99.90;;;;;;4995711;28;20060;-86
2021/12/22 02:04:35;;;;;;;62.70;29.90;;;-4.30;99.90;;;;;;4984190;28;20128;-85
2021/12/22 02:07:01;;;;;;;74.95;32.10;;;-4.40;99.90;;;;;;4983687;28;20049;-86
2021/12/22 02:12:22;;;;;;;73.03;31.70;;;-4.20;99.90;;;;;;4919933;29;20051;-86
2021/12/22 02:14:48;;;;;;;78.32;31.98;;;-4.20;99.90;;;;;;4920723;28;20765;-85
2021/12/22 02:17:14;;;;;;;79.53;31.38;;;-4.20;99.90;;;;;;4922632;29;20138;-84
2021/12/22 02:19:49;;;;;;;68.22;29.73;;;-4.20;99.90;;;;;;4922118;29;20043;-85
2021/12/22 02:22:17;;;;;;;67.30;29.85;;;-4.20;99.90;;;;;;4904339;29;20114;-86
2021/12/22 02:24:48;;;;;;;76.75;30.10;;;-4.20;99.90;;;;;;4924180;29;20043;-85
2021/12/22 02:27:26;;;;;;;73.32;31.13;;;-4.10;99.90;;;;;;4905381;29;20138;-86
2021/12/22 02:29:57;;;;;;;67.90;31.27;;;-4.10;99.90;;;;;;4905172;28;20058;-86
2021/12/22 02:35:08;;;;;;;83.72;32.22;;;-4.10;99.90;;;;;;4925414;29;20587;-86
2021/12/22 02:37:42;;;;;;;72.40;30.08;;;-4.20;99.90;;;;;;4903563;29;20052;-85
2021/12/22 02:40:13;;;;;;;80.03;31.88;;;-4.20;99.90;;;;;;4884734;29;20059;-86
2021/12/22 02:42:38;;;;;;;66.72;30.08;;;-4.20;99.90;;;;;;4902772;29;20083;-85
2021/12/22 02:45:09;;;;;;;72.00;32.08;;;-4.10;99.90;;;;;;4886931;29;20094;-84
2021/12/22 02:47:35;;;;;;;67.93;29.88;;;-4.10;99.90;;;;;;4921113;29;20052;-85
2021/12/22 02:50:01;;;;;;;75.97;30.88;;;-4.10;99.90;;;;;;4975452;28;20056;-85
2021/12/22 02:52:34;;;;;;;74.38;30.55;;;-4.10;99.90;;;;;;4960709;28;20042;-85
2021/12/22 02:55:01;;;;;;;68.03;30.23;;;-4.10;99.90;;;;;;4963068;28;20034;-85
2021/12/22 02:57:31;;;;;;;70.78;30.27;;;-4.10;99.90;;;;;;4960499;28;20049;-85
2021/12/22 03:05:22;;;;;;;70.32;30.58;;;-4.10;99.90;;;;;;4976209;28;20204;-86
2021/12/22 03:07:48;;;;;;;68.45;30.95;;;-4.10;99.90;;;;;;4974931;28;20046;-85
2021/12/22 03:10:17;;;;;;;65.65;28.75;;;-4.10;99.90;;;;;;4976027;28;20438;-85
2021/12/22 03:12:47;;;;;;;69.70;29.67;;;-4.10;99.90;;;;;;4975718;28;20042;-85
2021/12/22 03:15:13;;;;;;;60.60;29.60;;;-4.10;99.90;;;;;;4962767;28;20132;-85
2021/12/22 03:17:39;;;;;;;66.90;28.92;;;-4.10;99.90;;;;;;4974379;28;20143;-85
2021/12/22 03:20:07;;;;;;;65.78;29.35;;;-4.20;99.90;;;;;;4961945;28;20046;-85
2021/12/22 03:22:33;;;;;;;64.53;29.65;;;-4.20;99.90;;;;;;4974630;28;20621;-85
2021/12/22 03:24:59;;;;;;;66.88;28.60;;;-4.10;99.90;;;;;;4959311;28;20069;-85
2021/12/22 03:27:25;;;;;;;65.78;27.83;;;-4.10;99.90;;;;;;4958782;28;20034;-86
2021/12/22 03:29:51;;;;;;;66.20;29.75;;;-4.20;99.90;;;;;;4974388;28;20081;-84
2021/12/22 03:32:17;;;;;;;62.35;28.40;;;-4.20;99.90;;;;;;4978854;28;20072;-85
2021/12/22 03:34:43;;;;;;;64.80;27.50;;;-4.10;99.90;;;;;;4985647;28;20471;-85
2021/12/22 03:37:10;;;;;;;65.80;29.23;;;-4.20;99.90;;;;;;4978894;28;20113;-85
2021/12/22 03:39:37;;;;;;;59.53;26.67;;;-4.20;99.90;;;;;;4998069;28;20582;-85
2021/12/22 03:42:06;;;;;;;64.57;27.23;;;-4.10;99.90;;;;;;4979630;28;20072;-86
2021/12/22 03:44:32;;;;;;;68.63;28.38;;;-4.20;99.90;;;;;;4995376;28;20578;-85
2021/12/22 03:47:00;;;;;;;60.78;26.50;;;-4.10;99.90;;;;;;4989621;28;20038;-85
2021/12/22 03:49:27;;;;;;;69.53;28.42;;;-4.20;99.90;;;;;;4994665;28;20103;-86
2021/12/22 03:51:52;;;;;;;59.25;27.17;;;-4.20;99.90;;;;;;4980820;28;20048;-85
2021/12/22 03:54:18;;;;;;;65.55;28.35;;;-4.20;99.90;;;;;;4980626;28;20038;-85
2021/12/22 03:56:43;;;;;;;67.00;29.75;;;-4.20;99.90;;;;;;4997691;28;20042;-86
2021/12/22 03:59:09;;;;;;;66.53;28.02;;;-4.30;99.90;;;;;;4980620;28;20068;-85
2021/12/22 04:01:36;;;;;;;69.80;29.10;;;-4.20;99.90;;;;;;5000428;28;20046;-85
2021/12/22 04:04:07;;;;;;;64.57;27.83;;;-4.30;99.90;;;;;;4993288;28;20108;-85
2021/12/22 04:06:33;;;;;;;62.40;27.13;;;-4.40;99.90;;;;;;4980780;28;20104;-85
2021/12/22 04:08:59;;;;;;;63.08;27.15;;;-4.40;99.90;;;;;;5003196;28;20038;-86
2021/12/22 04:11:24;;;;;;;59.28;26.42;;;-4.50;99.90;;;;;;4994054;28;20103;-86
2021/12/22 04:13:50;;;;;;;61.92;26.45;;;-4.50;99.90;;;;;;5010472;28;20038;-85
2021/12/22 04:16:16;;;;;;;65.53;29.35;;;-4.60;99.90;;;;;;5000463;28;20049;-86
2021/12/22 04:18:41;;;;;;;62.53;28.40;;;-4.60;99.90;;;;;;4979913;28;20073;-84
2021/12/22 04:21:07;;;;;;;62.67;27.83;;;-4.60;99.90;;;;;;4979623;28;20533;-85
2021/12/22 04:23:32;;;;;;;60.83;28.17;;;-4.60;99.90;;;;;;4997616;28;20058;-86
2021/12/22 04:25:58;;;;;;;65.07;26.95;;;-4.70;99.90;;;;;;4995444;28;20042;-85
2021/12/22 04:28:24;;;;;;;71.85;28.00;;;-4.70;99.90;;;;;;4994486;28;20042;-86
2021/12/22 04:30:50;;;;;;;64.72;28.25;;;-4.70;99.90;;;;;;4979433;28;20048;-86
2021/12/22 04:33:19;;;;;;;62.05;27.92;;;-4.70;99.90;;;;;;4978065;28;20036;-86
2021/12/22 04:35:45;;;;;;;65.68;27.88;;;-4.80;99.90;;;;;;5003448;28;20720;-86
2021/12/22 04:38:11;;;;;;;61.25;28.17;;;-4.70;99.90;;;;;;4994096;28;20042;-86
2021/12/22 04:40:37;;;;;;;66.20;27.63;;;-4.70;99.90;;;;;;4982186;28;20102;-85
2021/12/22 04:43:03;;;;;;;67.32;27.70;;;-4.80;99.90;;;;;;4979741;28;20052;-85
2021/12/22 04:45:29;;;;;;;65.78;29.60;;;-4.80;99.90;;;;;;4977741;28;20046;-86
2021/12/22 04:47:55;;;;;;;59.55;26.98;;;-4.80;99.90;;;;;;4980969;28;20046;-86
2021/12/22 04:50:22;;;;;;;68.45;27.92;;;-4.80;99.90;;;;;;4979180;28;20966;-85
2021/12/22 04:52:58;;;;;;;71.43;28.55;;;-4.80;99.90;;;;;;4981213;28;20053;-85
2021/12/22 04:55:25;;;;;;;62.83;26.65;;;-4.80;99.90;;;;;;4983620;28;20140;-85
2021/12/22 04:57:53;;;;;;;70.53;27.75;;;-4.80;99.90;;;;;;4979212;28;20103;-85
2021/12/22 05:00:21;;;;;;;61.83;26.40;;;-4.80;99.90;;;;;;4980674;28;20056;-86
2021/12/22 05:02:47;;;;;;;63.40;28.40;;;-4.90;99.90;;;;;;4979527;28;20041;-86
2021/12/22 05:05:13;;;;;;;76.55;29.83;;;-4.90;99.90;;;;;;4982381;28;20502;-86
2021/12/22 05:07:38;;;;;;;67.25;27.40;;;-5.00;99.90;;;;;;4997891;28;20046;-86
2021/12/22 05:10:07;;;;;;;59.65;28.50;;;-5.00;99.90;;;;;;4997997;28;20073;-86
2021/12/22 05:12:33;;;;;;;69.68;28.40;;;-4.90;99.90;;;;;;4984464;28;20449;-86
2021/12/22 05:14:58;;;;;;;75.68;29.98;;;-4.90;99.90;;;;;;4981777;28;20041;-85
2021/12/22 05:17:50;;;;;;;64.00;28.80;;;-4.90;99.90;;;;;;4983715;28;20084;-86
2021/12/22 05:20:11;;;;;;;70.18;29.27;;;-5.00;99.90;;;;;;4996879;28;20053;-86
2021/12/22 05:22:37;;;;;;;69.28;28.73;;;-4.90;99.90;;;;;;4996595;28;20083;-86
2021/12/22 05:25:04;;;;;;;68.13;29.45;;;-4.90;99.90;;;;;;4996534;28;20415;-86
2021/12/22 05:27:31;;;;;;;68.57;27.58;;;-4.90;99.90;;;;;;4997883;28;20048;-86
2021/12/22 05:29:57;;;;;;;69.75;28.00;;;-4.90;99.90;;;;;;4995300;28;20133;-86
2021/12/22 05:32:29;;;;;;;69.07;29.20;;;-4.90;99.90;;;;;;4983014;28;20052;-85
2021/12/22 05:34:55;;;;;;;69.75;28.83;;;-4.90;99.90;;;;;;4994512;28;20132;-86
2021/12/22 05:37:20;;;;;;;71.45;28.08;;;-4.90;99.90;;;;;;4997330;28;20113;-86
2021/12/22 05:39:46;;;;;;;70.00;28.73;;;-4.90;99.90;;;;;;4989345;28;20041;-86
2021/12/22 05:42:11;;;;;;;66.50;28.58;;;-4.90;99.90;;;;;;4996640;28;20565;-87
2021/12/22 05:44:37;;;;;;;67.45;28.65;;;-4.90;99.90;;;;;;4979363;28;20045;-86
2021/12/22 05:47:03;;;;;;;75.65;27.50;;;-4.90;99.90;;;;;;4996992;28;20041;-86
2021/12/22 05:49:29;;;;;;;68.30;27.83;;;-4.90;99.90;;;;;;4982374;28;20559;-85
2021/12/22 05:51:54;;;;;;;68.32;27.58;;;-4.90;99.90;;;;;;4982549;28;20210;-86
2021/12/22 05:54:20;;;;;;;62.22;27.35;;;-4.90;99.90;;;;;;4982066;28;20060;-85
2021/12/22 05:56:46;;;;;;;65.47;27.58;;;-4.90;99.90;;;;;;4982550;28;20056;-86
2021/12/22 05:59:11;;;;;;;64.95;27.42;;;-4.90;99.90;;;;;;4982735;28;20060;-86
2021/12/22 06:01:37;;;;;;;68.13;28.95;;;-4.90;99.90;;;;;;4981896;28;20114;-86
2021/12/22 06:04:03;;;;;;;60.22;26.17;;;-4.90;99.90;;;;;;4998274;28;20034;-85
2021/12/22 06:06:29;;;;;;;67.65;27.63;;;-4.90;99.90;;;;;;4979915;28;20046;-85
2021/12/22 06:08:55;;;;;;;67.47;27.77;;;-5.00;99.90;;;;;;4982802;28;20152;-86
2021/12/22 06:11:20;;;;;;;62.70;27.40;;;-4.90;99.90;;;;;;4982595;28;20049;-86
2021/12/22 06:13:46;;;;;;;68.47;27.05;;;-4.90;99.90;;;;;;4981084;28;20116;-85
2021/12/22 06:16:12;;;;;;;62.50;26.23;;;-4.90;99.90;;;;;;4982076;28;20045;-85
2021/12/22 06:18:42;;;;;;;59.90;25.40;;;-4.90;99.90;;;;;;5001464;28;20049;-86
2021/12/22 06:21:10;;;;;;;58.85;25.63;;;-4.90;99.90;;;;;;5012283;28;20045;-86
2021/12/22 06:23:36;;;;;;;64.45;26.95;;;-5.00;99.90;;;;;;4991040;28;20045;-86
2021/12/22 06:26:02;;;;;;;68.75;27.80;;;-4.90;99.90;;;;;;4994468;28;20048;-86
2021/12/22 06:28:28;;;;;;;69.38;25.77;;;-4.90;99.90;;;;;;4994238;28;20084;-85
2021/12/22 06:30:53;;;;;;;68.18;26.15;;;-4.90;99.90;;;;;;4985432;28;20049;-85
2021/12/22 06:33:19;;;;;;;62.42;25.40;;;-4.90;99.90;;;;;;4983245;28;20073;-86
2021/12/22 06:35:48;;;;;;;64.22;25.15;;;-5.00;99.90;;;;;;4981358;28;20057;-85
2021/12/22 06:38:17;;;;;;;62.80;25.55;;;-5.00;99.90;;;;;;4996622;28;20052;-85
2021/12/22 06:40:43;;;;;;;58.10;25.25;;;-5.00;99.90;;;;;;4980071;28;20396;-85
2021/12/22 06:43:09;;;;;;;59.03;24.70;;;-5.00;99.90;;;;;;4993204;28;20056;-85
2021/12/22 06:45:34;;;;;;;61.78;24.60;;;-5.00;99.90;;;;;;4981739;28;20257;-85
2021/12/22 06:48:00;;;;;;;60.35;25.65;;;-5.10;99.90;;;;;;4981746;28;21165;-87
2021/12/22 06:50:26;;;;;;;67.63;25.65;;;-5.10;99.90;;;;;;4980255;28;20574;-86
2021/12/22 06:52:51;;;;;;;60.72;25.33;;;-5.10;99.90;;;;;;4981155;28;20187;-85
2021/12/22 06:55:17;;;;;;;61.63;25.92;;;-5.10;99.90;;;;;;4996017;28;20150;-86
2021/12/22 06:57:43;;;;;;;60.85;26.77;;;-5.10;99.90;;;;;;4980493;28;20042;-87
2021/12/22 07:00:11;;;;;;;62.00;26.35;;;-5.10;99.90;;;;;;4998758;28;20862;-85
2021/12/22 07:02:38;;;;;;;69.47;26.35;;;-5.10;99.90;;;;;;4996553;28;20051;-86
2021/12/22 07:05:09;;;;;;;57.67;24.17;;;-5.10;99.90;;;;;;4997656;28;20135;-86
2021/12/22 07:07:35;;;;;;;67.50;25.00;;;-5.00;99.90;;;;;;4994829;28;20073;-85
2021/12/22 07:10:02;;;;;;;63.00;26.35;;;-5.00;99.90;;;;;;4977255;28;20084;-86
2021/12/22 07:12:28;;;;;;;63.30;27.67;;;-5.10;99.90;;;;;;4980790;28;20139;-86
2021/12/22 07:14:54;;;;;;;64.75;26.80;;;-5.10;99.90;;;;;;4982108;28;20037;-86
2021/12/22 07:17:19;;;;;;;64.32;25.15;;;-5.10;99.90;;;;;;4980214;28;20046;-85
2021/12/22 07:19:45;;;;;;;63.30;27.10;;;-5.10;99.90;;;;;;4997759;28;20073;-86
2021/12/22 07:22:11;;;;;;;63.33;24.90;;;-5.10;99.90;;;;;;4981069;28;20033;-85
2021/12/22 07:24:37;;;;;;;63.28;26.65;;;-5.10;99.90;;;;;;4982211;28;20389;-86
2021/12/22 07:27:03;;;;;;;61.78;25.90;;;-5.10;99.90;;;;;;4980310;28;20057;-85
2021/12/22 07:29:28;;;;;;;73.13;28.00;;;-5.10;99.90;;;;;;5011887;28;20065;-87
2021/12/22 07:31:54;;;;;;;68.40;26.23;;;-5.10;99.90;;;;;;4997772;28;20182;-86
2021/12/22 07:35:13;;;;;;;71.25;28.27;;;-5.00;99.90;;;;;;4981579;28;20056;-87
2021/12/22 07:37:41;;;;;;;69.97;28.73;;;-5.00;99.90;;;;;;4930054;28;20051;-86
2021/12/22 07:40:13;;;;;;;66.72;26.55;;;-5.00;99.90;;;;;;4942798;28;20043;-86
2021/12/22 07:42:39;;;;;;;76.28;27.42;;;-5.00;99.90;;;;;;4946748;28;20062;-87
2021/12/22 07:45:06;;;;;;;66.97;27.17;;;-5.00;99.90;;;;;;4929616;28;20556;-86
2021/12/22 07:47:32;;;;;;;70.43;28.30;;;-5.10;99.90;;;;;;4930403;28;20043;-86
2021/12/22 07:49:57;;;;;;;66.55;29.55;;;-5.10;99.90;;;;;;4928939;28;20195;-86
2021/12/22 07:52:27;;;;;;;68.68;26.80;;;-5.00;99.90;;;;;;4929548;28;20047;-86
2021/12/22 07:54:56;;;;;;;63.60;26.73;;;-5.00;99.90;;;;;;4925884;28;20062;-87
2021/12/22 07:57:22;;;;;;;72.03;27.40;;;-4.90;99.90;;;;;;4931008;28;20047;-87
2021/12/22 07:59:48;;;;;;;67.65;26.70;;;-5.00;99.90;;;;;;4911741;28;20051;-85
2021/12/22 08:02:14;;;;;;;74.72;28.10;;;-4.90;99.90;;;;;;4930096;28;20778;-86
2021/12/22 08:04:40;;;;;;;71.20;27.08;;;-4.80;99.90;;;;;;4944804;28;20090;-86
2021/12/22 08:07:05;;;;;;;67.38;27.10;;;-4.80;99.90;;;;;;4952560;28;20046;-87
2021/12/22 08:09:31;;;;;;;68.47;27.17;;;-4.70;99.90;;;;;;4980056;28;20041;-87
2021/12/22 08:12:04;;;;;;;77.57;28.08;;;-4.60;99.90;;;;;;4980777;28;20054;-86
2021/12/22 08:14:41;;;;;;;71.88;29.48;;;-4.60;99.90;;;;;;4999728;28;20091;-86
2021/12/22 08:17:08;;;;;;;72.82;27.98;;;-4.60;99.90;;;;;;4980886;28;20053;-86
2021/12/22 08:19:34;;;;;;;68.28;27.15;;;-4.50;99.90;;;;;;4981673;28;20164;-87
2021/12/22 08:22:00;;;;;;;70.88;27.67;;;-4.50;99.90;;;;;;5015637;28;20041;-86
2021/12/22 08:24:26;;;;;;;71.15;27.85;;;-4.50;99.90;;;;;;4982789;28;20042;-85
2021/12/22 08:26:52;;;;;;;84.53;29.90;;;-4.50;99.90;;;;;;4982400;28;20041;-86
2021/12/22 08:29:18;;;;;;;77.38;29.77;;;-4.40;99.90;;;;;;4980729;28;20037;-88
2021/12/22 08:31:44;;;;;;;71.07;28.67;;;-4.30;99.90;;;;;;4981020;28;20103;-88
2021/12/22 08:34:11;;;;;;;71.72;27.10;;;-4.30;99.90;;;;;;4982666;28;20538;-85
2021/12/22 08:39:24;;;;;;;71.95;28.48;;;-4.20;99.90;;;;;;5000229;28;20041;-86
2021/12/22 08:41:50;;;;;;;84.10;30.10;;;-4.20;99.90;;;;;;4986061;28;20055;-85
2021/12/22 08:44:18;;;;;;;72.90;27.70;;;-4.10;99.90;;;;;;4986362;28;20045;-85
2021/12/22 08:46:49;;;;;;;77.90;28.08;;;-4.00;99.90;;;;;;4981840;28;20054;-85
2021/12/22 08:49:16;;;;;;;69.63;28.52;;;-4.00;99.90;;;;;;4984399;28;20049;-85
2021/12/22 08:51:42;;;;;;;69.53;27.83;;;-3.90;99.90;;;;;;4984350;28;20049;-86
2021/12/22 08:54:07;;;;;;;76.03;29.35;;;-3.90;99.90;;;;;;5001173;28;20045;-85
2021/12/22 08:56:34;;;;;;;66.90;29.20;;;-3.90;99.90;;;;;;4982779;28;20470;-85
2021/12/22 08:59:00;;;;;;;78.30;29.40;;;-3.80;99.90;;;;;;4985102;28;20044;-85
2021/12/22 09:01:26;;;;;;;72.40;29.50;;;-3.80;99.90;;;;;;4986984;28;20111;-86
2021/12/22 09:03:53;;;;;;;75.93;28.45;;;-3.70;99.90;;;;;;4984869;28;20041;-85
2021/12/22 09:06:18;;;;;;;78.72;28.58;;;-3.70;99.90;;;;;;5000444;28;20048;-85
2021/12/22 09:08:45;;;;;;;75.10;29.30;;;-3.70;99.90;;;;;;5004036;28;20038;-85
2021/12/22 09:11:12;;;;;;;72.10;29.42;;;-3.60;99.90;;;;;;4986473;28;20132;-87
2021/12/22 09:13:39;;;;;;;70.43;28.05;;;-3.60;99.90;;;;;;4984392;28;20050;-87
2021/12/22 09:16:09;;;;;;;78.47;30.98;;;-3.60;99.90;;;;;;5000443;28;20682;-87
2021/12/22 09:18:35;;;;;;;75.10;27.92;;;-3.60;99.90;;;;;;4983161;28;20037;-86
2021/12/22 09:21:02;;;;;;;71.95;30.50;;;-3.50;99.90;;;;;;4981260;28;20127;-84
2021/12/22 09:23:27;;;;;;;77.07;31.00;;;-3.50;99.90;;;;;;4982620;28;20037;-83
2021/12/22 09:25:53;;;;;;;68.60;30.10;;;-3.50;99.90;;;;;;4982506;28;20050;-85
2021/12/22 09:28:19;;;;;;;76.95;29.13;;;-3.40;99.90;;;;;;5003535;28;20037;-89
2021/12/22 09:30:45;;;;;;;74.63;29.95;;;-3.40;99.90;;;;;;4983956;28;20491;-87
2021/12/22 09:33:17;;;;;;;74.57;29.70;;;-3.40;99.90;;;;;;4985817;28;20795;-87
2021/12/22 09:35:45;;;;;;;74.38;30.65;;;-3.30;99.90;;;;;;4987600;28;20089;-88
2021/12/22 09:38:11;;;;;;;84.00;31.70;;;-3.30;99.90;;;;;;4986857;28;20049;-88
2021/12/22 09:40:37;;;;;;;79.68;30.67;;;-3.20;99.90;;;;;;4985597;28;21570;-86
2021/12/22 09:43:04;;;;;;;83.13;31.17;;;-3.10;99.90;;;;;;4985487;28;20387;-87
2021/12/22 09:45:31;;;;;;;83.68;32.85;;;-3.00;99.90;;;;;;4986737;28;20041;-86
2021/12/22 09:50:44;;;;;;;68.82;29.95;;;-2.60;99.90;;;;;;4995999;28;20411;-87
2021/12/22 09:53:10;;;;;;;71.32;31.13;;;-2.60;99.90;;;;;;5001638;28;20456;-85
2021/12/22 09:55:36;;;;;;;69.35;29.60;;;-2.60;99.90;;;;;;4982132;28;20030;-84
2021/12/22 09:58:03;;;;;;;68.18;29.30;;;-2.60;99.90;;;;;;4983530;28;20710;-84
2021/12/22 10:00:30;;;;;;;69.93;29.85;;;-2.50;99.90;;;;;;5002709;28;20045;-85
2021/12/22 10:02:56;;;;;;;70.43;30.35;;;-2.40;99.90;;;;;;4999766;28;20540;-85
2021/12/22 10:05:21;;;;;;;76.82;29.27;;;-2.30;99.90;;;;;;4983681;28;20160;-85
2021/12/22 10:08:07;;;;;;;69.80;28.15;;;-2.20;99.90;;;;;;4997293;28;20089;-85
2021/12/22 10:10:33;;;;;;;69.38;29.63;;;-2.10;99.90;;;;;;4983275;28;20485;-85
2021/12/22 10:13:11;;;;;;;63.38;29.10;;;-2.00;99.90;;;;;;4982931;28;20033;-84
2021/12/22 10:15:37;;;;;;;68.93;29.27;;;-1.80;99.90;;;;;;4983993;28;20051;-85
2021/12/22 10:18:15;;;;;;;67.95;28.63;;;-1.80;99.90;;;;;;4981278;28;20518;-84
2021/12/22 10:20:42;;;;;;;65.45;29.30;;;-1.70;99.90;;;;;;4980931;28;20041;-84
2021/12/22 10:23:22;;;;;;;69.85;29.88;;;-1.70;99.90;;;;;;4985205;28;20041;-85
2021/12/22 10:25:51;;;;;;;59.17;28.80;;;-1.60;99.90;;;;;;4991773;28;20046;-85
2021/12/22 10:28:19;;;;;;;61.90;29.27;;;-1.60;99.90;;;;;;4981904;28;20049;-84
2021/12/22 10:30:46;;;;;;;54.70;25.20;;;-1.60;99.90;;;;;;4997078;28;20427;-85
2021/12/22 10:33:21;;;;;;;59.17;26.15;;;-1.50;99.90;;;;;;4997350;28;20044;-85
2021/12/22 10:35:52;;;;;;;51.95;26.35;;;-1.50;99.90;;;;;;4982901;28;20132;-84
2021/12/22 10:38:27;;;;;;;56.80;26.55;;;-1.50;99.90;;;;;;4990257;28;20225;-84
2021/12/22 10:41:05;;;;;;;59.47;26.30;;;-1.40;99.90;;;;;;4982866;28;20060;-84
2021/12/22 10:43:33;;;;;;;52.13;24.77;;;-1.50;99.90;;;;;;5000438;28;20569;-84
2021/12/22 10:46:02;;;;;;;60.97;25.27;;;-1.50;99.90;;;;;;4983899;28;20045;-86
2021/12/22 10:51:32;;;;;;;52.35;25.35;;;-1.50;99.90;;;;;;4996935;28;20050;-85
2021/12/22 10:53:59;;;;;;;56.15;26.63;;;-1.50;99.90;;;;;;4982151;28;20049;-85
2021/12/22 10:56:29;;;;;;;63.20;27.42;;;-1.40;99.90;;;;;;5004498;28;20041;-85
2021/12/22 10:59:19;;;;;;;53.63;25.55;;;-1.30;99.90;;;;;;4985768;28;20499;-85
2021/12/22 11:01:56;;;;;;;61.03;28.15;;;-1.20;99.90;;;;;;4966831;28;20496;-84
2021/12/22 11:04:27;;;;;;;49.90;23.17;;;-1.10;99.90;;;;;;4994913;28;20045;-85
2021/12/22 11:07:04;;;;;;;55.72;26.63;;;-1.10;99.90;;;;;;4986457;28;20140;-85
2021/12/22 11:09:34;;;;;;;56.42;25.88;;;-1.00;99.90;;;;;;4993851;28;20045;-85
2021/12/22 11:12:00;;;;;;;51.10;24.02;;;-0.90;99.90;;;;;;4986432;28;20056;-84
2021/12/22 11:14:33;;;;;;;55.88;25.42;;;-0.90;99.90;;;;;;4994577;28;20125;-84
2021/12/22 11:17:11;;;;;;;58.30;24.33;;;-0.80;99.90;;;;;;5001060;28;20092;-84
2021/12/22 11:19:50;;;;;;;50.05;24.83;;;-0.80;99.90;;;;;;4980439;28;20050;-84
2021/12/22 11:22:18;;;;;;;49.58;23.60;;;-0.80;99.90;;;;;;4988570;28;20125;-84
2021/12/22 11:24:49;;;;;;;54.75;23.65;;;-0.70;99.90;;;;;;4996179;28;20053;-84
2021/12/22 11:27:20;;;;;;;51.90;23.67;;;-0.70;99.90;;;;;;4983474;28;20403;-84
2021/12/22 11:29:51;;;;;;;53.70;25.48;;;-0.70;99.90;;;;;;4980847;28;20050;-84
2021/12/22 11:32:20;;;;;;;50.42;23.38;;;-0.60;99.90;;;;;;4994655;28;20569;-85
2021/12/22 11:34:49;;;;;;;49.10;23.67;;;-0.70;99.90;;;;;;4982705;28;20141;-85
2021/12/22 11:37:15;;;;;;;51.58;23.40;;;-0.70;99.90;;;;;;4976165;28;20099;-84
2021/12/22 11:39:41;;;;;;;46.20;23.25;;;-0.70;99.90;;;;;;4959878;28;20488;-84
2021/12/22 11:42:09;;;;;;;51.53;24.60;;;-0.80;99.90;;;;;;4960629;28;20042;-85
2021/12/22 11:44:38;;;;;;;51.88;24.45;;;-0.80;99.90;;;;;;4977892;28;20407;-85
2021/12/22 11:47:08;;;;;;;49.70;23.77;;;-0.80;99.90;;;;;;4959398;28;20046;-85
2021/12/22 11:49:34;;;;;;;50.50;23.45;;;-0.90;99.90;;;;;;4963725;28;20049;-84
2021/12/22 11:52:30;;;;;;;48.00;25.30;;;-0.90;99.90;;;;;;4960296;28;20046;-85
2021/12/22 11:55:20;;;;;;;48.35;22.67;;;-0.90;99.90;;;;;;4959400;28;20053;-84
2021/12/22 11:57:48;;;;;;;53.00;24.33;;;-0.90;99.90;;;;;;4974605;28;20089;-84
2021/12/22 12:00:32;;;;;;;56.97;25.73;;;-0.90;99.90;;;;;;4961575;28;20046;-83
2021/12/22 12:02:59;;;;;;;;;;;-0.90;99.90;;;;;;4954524;28;20878;-84
2021/12/22 12:05:30;;;;;;;46.15;21.73;;;-0.90;99.90;;;;;;4960090;28;19930;-83
2021/12/22 12:08:02;;;;;;;50.20;24.67;;;-0.80;99.90;;;;;;4960004;28;20041;-84
2021/12/22 12:10:38;;;;;;;53.17;27.77;;;-0.80;99.90;;;;;;4958743;28;20216;-84
2021/12/22 12:13:21;;;;;;;53.22;26.38;;;-0.80;99.90;;;;;;4979035;28;20057;-84
2021/12/22 12:22:07;;;;;;;55.40;25.88;;;-0.70;99.90;;;;;;4971494;28;20042;-83
2021/12/22 12:24:45;;;;;;;45.63;22.73;;;-0.60;99.90;;;;;;4961269;28;20052;-83
2021/12/22 12:27:50;;;;;;;51.35;24.63;;;-0.60;99.90;;;;;;4973470;28;20104;-83
2021/12/22 12:30:44;;;;;;;52.10;23.67;;;-0.50;99.90;;;;;;4971417;28;20460;-84
2021/12/22 12:33:11;;;;;;;;;;;-0.50;99.90;;;;;;4971499;28;20050;-84
2021/12/22 12:35:47;;;;;;;50.70;23.90;;;-0.40;99.90;;;;;;4972347;28;19928;-84
2021/12/22 12:38:40;;;;;;;49.70;24.63;;;-0.40;99.90;;;;;;4978617;28;20444;-84
2021/12/22 12:41:11;;;;;;;49.60;24.25;;;-0.40;99.90;;;;;;4984895;28;20104;-83
2021/12/22 12:43:51;;;;;;;50.88;25.25;;;-0.40;99.90;;;;;;4973880;28;20072;-82
2021/12/22 12:46:20;;;;;;;47.08;24.92;;;-0.40;99.90;;;;;;4972969;28;22359;-82
2021/12/22 12:48:54;;;;;;;49.47;25.73;;;-0.40;99.90;;;;;;4975933;28;20104;-81
2021/12/22 12:51:21;;;;;;;47.88;23.45;;;-0.40;99.90;;;;;;4992290;28;20073;-81
2021/12/22 12:53:50;;;;;;;50.35;24.05;;;-0.40;99.90;;;;;;4990379;28;20060;-82
2021/12/22 12:56:19;;;;;;;51.17;24.65;;;-0.50;99.90;;;;;;4991733;28;20456;-81
2021/12/22 12:58:55;;;;;;;52.72;25.75;;;-0.50;99.90;;;;;;4972470;28;20125;-81
2021/12/22 13:04:30;;;;;;;50.33;24.83;;;-0.60;99.90;;;;;;4992414;28;20132;-81
2021/12/22 13:07:05;;;;;;;49.15;24.48;;;-0.60;99.90;;;;;;4976519;28;20054;-82
2021/12/22 13:09:40;;;;;;;54.15;24.98;;;-0.60;99.90;;;;;;4987579;28;20057;-81